createdAt,value
2023-03-24T00:00:03.015Z,2.47
2023-03-24T00:02:37.650Z,2.88
2023-03-24T00:05:05.637Z,2.28
2023-03-24T00:07:35.378Z,3.03
2023-03-24T00:10:02.469Z,2.50
2023-03-24T00:12:29.400Z,2.50
2023-03-24T00:14:56.072Z,2.30
2023-03-24T00:17:25.508Z,2.85
2023-03-24T00:19:52.445Z,2.28
2023-03-24T00:22:21.210Z,2.50
2023-03-24T00:24:49.614Z,2.75
2023-03-24T00:27:17.676Z,3.03
2023-03-24T00:29:44.531Z,3.33
2023-03-24T00:32:11.437Z,2.75
2023-03-24T00:34:38.455Z,2.35
2023-03-24T00:37:06.317Z,2.88
2023-03-24T00:39:33.668Z,2.58
2023-03-24T00:42:01.874Z,2.55
2023-03-24T00:44:28.968Z,2.70
2023-03-24T00:46:55.850Z,2.60
2023-03-24T00:49:44.671Z,2.35
2023-03-24T00:52:24.995Z,2.90
2023-03-24T00:54:58.241Z,2.65
2023-03-24T00:57:26.090Z,2.28
2023-03-24T00:59:54.559Z,2.17
2023-03-24T01:02:27.819Z,2.35
2023-03-24T01:04:59.217Z,2.70
2023-03-24T01:07:28.298Z,2.20
2023-03-24T01:09:57.913Z,2.53
2023-03-24T01:12:33.333Z,2.83
2023-03-24T01:15:02.791Z,2.25
2023-03-24T01:17:29.703Z,2.42
2023-03-24T01:19:56.731Z,2.78
2023-03-24T01:22:30.114Z,2.45
2023-03-24T01:24:57.051Z,2.63
2023-03-24T01:27:23.741Z,2.17
2023-03-24T01:29:50.962Z,2.15
2023-03-24T01:32:17.587Z,2.15
2023-03-24T01:34:44.572Z,2.30
2023-03-24T01:37:11.282Z,2.40
2023-03-24T01:39:38.296Z,2.80
2023-03-24T01:42:05.034Z,2.25
2023-03-24T01:44:37.788Z,2.38
2023-03-24T01:47:07.931Z,2.35
2023-03-24T01:49:56.430Z,2.15
2023-03-24T01:52:36.405Z,2.03
2023-03-24T01:55:09.192Z,2.75
2023-03-24T01:57:41.274Z,2.45
2023-03-24T02:00:12.541Z,2.75
2023-03-24T02:03:06.626Z,2.70
2023-03-24T02:05:41.602Z,2.75
2023-03-24T02:08:13.197Z,2.55
2023-03-24T02:10:40.235Z,2.20
2023-03-24T02:13:07.736Z,2.05
2023-03-24T02:15:41.380Z,2.55
2023-03-24T02:18:18.382Z,2.90
2023-03-24T02:20:57.151Z,3.00
2023-03-24T02:23:33.487Z,3.13
2023-03-24T02:26:09.302Z,2.70
2023-03-24T02:29:22.690Z,2.45
2023-03-24T02:35:24.271Z,2.63
2023-03-24T02:38:31.145Z,2.83
2023-03-24T02:41:16.985Z,2.45
2023-03-24T02:43:58.472Z,2.55
2023-03-24T02:46:49.334Z,2.87
2023-03-24T02:49:28.539Z,3.05
2023-03-24T02:52:04.052Z,2.45
2023-03-24T02:54:43.908Z,2.90
2023-03-24T02:57:21.996Z,2.95
2023-03-24T03:00:36.706Z,2.50
2023-03-24T03:03:17.430Z,2.88
2023-03-24T03:05:52.538Z,2.97
2023-03-24T03:08:21.647Z,3.30
2023-03-24T03:10:51.843Z,3.30
2023-03-24T03:13:27.956Z,3.05
2023-03-24T03:15:58.128Z,2.72
2023-03-24T03:18:33.900Z,2.70
2023-03-24T03:21:07.750Z,2.67
2023-03-24T03:23:38.564Z,2.78
2023-03-24T03:26:12.294Z,2.83
2023-03-24T03:28:50.089Z,3.25
2023-03-24T03:31:29.723Z,3.47
2023-03-24T03:34:08.702Z,2.75
2023-03-24T03:36:59.114Z,2.80
2023-03-24T03:39:32.970Z,2.00
2023-03-24T03:42:04.325Z,1.13
2023-03-24T03:44:31.707Z,1.27
2023-03-24T03:46:58.722Z,1.17
2023-03-24T03:49:37.665Z,1.13
2023-03-24T03:52:05.321Z,1.05
2023-03-24T03:54:32.642Z,1.20
2023-03-24T03:56:59.828Z,0.93
2023-03-24T03:59:36.904Z,0.97
2023-03-24T04:02:35.784Z,1.23
2023-03-24T04:05:26.180Z,1.50
2023-03-24T04:08:14.657Z,1.10
2023-03-24T04:11:05.495Z,1.85
2023-03-24T04:14:00.825Z,1.67
2023-03-24T04:16:54.245Z,1.45
2023-03-24T04:19:55.787Z,1.42
2023-03-24T04:22:48.332Z,1.77
2023-03-24T04:25:30.180Z,1.30
2023-03-24T04:28:02.810Z,2.20
2023-03-24T04:33:28.895Z,2.58
2023-03-24T04:36:16.834Z,3.00
2023-03-24T04:39:01.669Z,3.20
2023-03-24T04:41:47.330Z,2.90
2023-03-24T04:44:23.622Z,3.40
2023-03-24T04:47:13.133Z,3.30
2023-03-24T04:49:47.940Z,3.80
2023-03-24T04:52:16.215Z,3.30
2023-03-24T04:54:44.166Z,3.58
2023-03-24T04:57:10.836Z,3.20
2023-03-24T04:59:43.739Z,3.70
2023-03-24T05:02:10.968Z,3.50
2023-03-24T05:04:57.795Z,4.45
2023-03-24T05:07:31.696Z,4.00
2023-03-24T05:10:00.269Z,4.80
2023-03-24T05:12:26.871Z,4.40
2023-03-24T05:15:16.716Z,4.85
2023-03-24T05:17:45.443Z,4.95
2023-03-24T05:20:12.768Z,4.20
2023-03-24T05:22:42.717Z,3.83
2023-03-24T05:25:09.524Z,3.88
2023-03-24T05:27:36.330Z,3.95
2023-03-24T05:30:16.008Z,4.60
2023-03-24T05:32:45.329Z,3.67
2023-03-24T05:35:13.946Z,3.83
2023-03-24T05:37:42.797Z,3.13
2023-03-24T05:40:10.043Z,3.80
2023-03-24T05:42:53.047Z,3.25
2023-03-24T05:45:21.756Z,2.95
2023-03-24T05:47:48.685Z,3.50
2023-03-24T05:50:19.740Z,3.35
2023-03-24T05:52:46.521Z,3.63
2023-03-24T05:55:40.096Z,2.92
2023-03-24T05:58:22.444Z,3.15
2023-03-24T06:00:50.749Z,3.28
2023-03-24T06:03:34.266Z,2.88
2023-03-24T06:06:08.756Z,3.58
2023-03-24T06:08:35.996Z,3.15
2023-03-24T06:11:03.921Z,3.83
2023-03-24T06:13:33.696Z,4.15
2023-03-24T06:16:03.546Z,3.15
2023-03-24T06:18:36.200Z,3.38
2023-03-24T06:21:12.573Z,2.60
2023-03-24T06:23:41.669Z,3.17
2023-03-24T06:26:11.711Z,3.35
2023-03-24T06:28:58.664Z,2.92
2023-03-24T06:31:30.271Z,3.28
2023-03-24T06:33:57.179Z,3.72
2023-03-24T06:36:25.630Z,3.28
2023-03-24T06:38:53.870Z,3.33
2023-03-24T06:41:21.709Z,3.83
2023-03-24T06:43:53.574Z,3.70
2023-03-24T06:46:20.881Z,3.83
2023-03-24T06:48:49.243Z,4.45
2023-03-24T06:51:16.880Z,3.38
2023-03-24T06:53:45.820Z,3.05
2023-03-24T06:56:18.213Z,2.97
2023-03-24T06:58:49.933Z,3.15
2023-03-24T07:01:25.462Z,2.92
2023-03-24T07:03:52.194Z,2.80
2023-03-24T07:06:18.949Z,3.03
2023-03-24T07:08:50.373Z,2.80
2023-03-24T07:11:17.762Z,2.75
2023-03-24T07:13:53.460Z,2.40
2023-03-24T07:16:23.239Z,2.33
2023-03-24T07:18:58.695Z,2.78
2023-03-24T07:21:27.162Z,2.67
2023-03-24T07:23:53.766Z,2.90
2023-03-24T07:26:25.889Z,2.67
2023-03-24T07:28:57.644Z,2.55
2023-03-24T07:31:50.893Z,2.83
2023-03-24T07:34:17.535Z,3.10
2023-03-24T07:36:44.188Z,2.67
2023-03-24T07:39:16.552Z,2.50
2023-03-24T07:41:43.465Z,3.17
2023-03-24T07:44:20.374Z,2.80
2023-03-24T07:46:50.553Z,2.85
2023-03-24T07:49:19.799Z,3.13
2023-03-24T07:52:02.105Z,2.83
2023-03-24T07:54:34.253Z,3.05
2023-03-24T07:57:01.716Z,3.42
2023-03-24T07:59:28.899Z,2.78
2023-03-24T08:02:20.001Z,2.67
2023-03-24T08:05:14.497Z,3.00
2023-03-24T08:07:55.489Z,3.10
2023-03-24T08:10:25.832Z,2.72
2023-03-24T08:12:53.110Z,2.60
2023-03-24T08:15:19.882Z,2.25
2023-03-24T08:17:48.286Z,2.45
2023-03-24T08:20:15.248Z,3.03
2023-03-24T08:22:44.356Z,3.30
2023-03-24T08:25:12.987Z,3.30
2023-03-24T08:27:40.786Z,2.65
2023-03-24T08:30:10.341Z,3.45
2023-03-24T08:32:37.455Z,3.05
2023-03-24T08:35:05.084Z,2.30
2023-03-24T08:37:31.898Z,3.08
2023-03-24T08:39:58.704Z,2.78
2023-03-24T08:42:26.046Z,2.53
2023-03-24T08:44:53.094Z,2.72
2023-03-24T08:47:19.745Z,2.35
2023-03-24T08:49:46.391Z,3.10
2023-03-24T08:52:12.979Z,2.78
2023-03-24T08:54:39.672Z,2.45
2023-03-24T08:57:06.682Z,2.45
2023-03-24T08:59:33.274Z,3.00
2023-03-24T09:01:59.839Z,3.10
2023-03-24T09:04:26.555Z,2.63
2023-03-24T09:06:53.709Z,2.67
2023-03-24T09:09:20.346Z,2.80
2023-03-24T09:11:48.650Z,2.92
2023-03-24T09:14:15.429Z,3.28
2023-03-24T09:16:43.903Z,2.92
2023-03-24T09:19:11.074Z,2.83
2023-03-24T09:21:54.925Z,3.00
2023-03-24T09:24:28.159Z,2.28
2023-03-24T09:27:04.009Z,2.60
2023-03-24T09:29:34.108Z,2.38
2023-03-24T09:32:01.520Z,2.35
2023-03-24T09:34:28.145Z,2.47
2023-03-24T09:36:55.946Z,2.08
2023-03-24T09:39:22.625Z,2.53
2023-03-24T09:41:50.535Z,3.15
2023-03-24T09:44:51.182Z,2.95
2023-03-24T09:47:26.839Z,2.80
2023-03-24T09:49:56.146Z,2.78
2023-03-24T09:52:33.798Z,2.58
2023-03-24T09:55:02.635Z,2.38
2023-03-24T09:57:42.292Z,2.80
2023-03-24T10:00:23.654Z,2.78
2023-03-24T10:02:53.077Z,3.45
2023-03-24T10:05:37.698Z,3.10
2023-03-24T10:08:25.094Z,3.03
2023-03-24T10:11:33.230Z,2.70
2023-03-24T10:14:26.560Z,2.97
2023-03-24T10:17:11.726Z,2.92
2023-03-24T10:19:55.547Z,2.58
2023-03-24T10:23:01.368Z,2.60
2023-03-24T10:25:50.145Z,3.03
2023-03-24T10:28:26.218Z,2.20
2023-03-24T10:30:58.444Z,3.03
2023-03-24T10:33:26.644Z,1.95
2023-03-24T10:36:07.985Z,2.80
2023-03-24T10:38:35.640Z,2.55
2023-03-24T10:41:02.789Z,2.42
2023-03-24T10:43:29.756Z,2.35
2023-03-24T10:45:58.218Z,2.40
2023-03-24T10:48:42.900Z,2.47
2023-03-24T10:51:22.019Z,2.58
2023-03-24T10:53:49.876Z,2.65
2023-03-24T10:56:40.449Z,2.10
2023-03-24T10:59:31.928Z,3.13
2023-03-24T11:02:11.193Z,3.22
2023-03-24T11:04:40.543Z,3.70
2023-03-24T11:07:21.932Z,2.88
2023-03-24T11:10:00.346Z,2.40
2023-03-24T11:12:36.844Z,3.13
2023-03-24T11:15:20.297Z,3.10
2023-03-24T11:17:55.957Z,2.90
2023-03-24T11:20:34.376Z,3.33
2023-03-24T11:23:11.045Z,2.97
2023-03-24T11:25:40.754Z,2.58
2023-03-24T11:28:14.651Z,3.17
2023-03-24T11:30:47.928Z,3.38
2023-03-24T11:33:35.623Z,3.42
2023-03-24T11:36:40.137Z,3.20
2023-03-24T11:39:20.167Z,2.92
2023-03-24T11:42:03.433Z,3.03
2023-03-24T11:44:40.394Z,3.78
2023-03-24T11:47:21.437Z,3.90
2023-03-24T11:50:09.933Z,4.05
2023-03-24T11:53:18.896Z,2.33
2023-03-24T11:55:57.270Z,2.28
2023-03-24T11:58:32.943Z,2.45
2023-03-24T12:01:11.947Z,1.85
2023-03-24T12:03:53.779Z,2.00
2023-03-24T12:06:28.240Z,2.07
2023-03-24T12:09:05.645Z,2.90
2023-03-24T12:12:10.778Z,1.90
2023-03-24T12:14:45.551Z,2.75
2023-03-24T12:17:21.381Z,3.55
2023-03-24T12:20:08.934Z,4.18
2023-03-24T12:22:47.526Z,3.55
2023-03-24T12:25:20.430Z,4.32
2023-03-24T12:28:23.423Z,3.60
2023-03-24T12:31:05.171Z,3.97
2023-03-24T12:33:58.940Z,5.07
2023-03-24T12:36:44.265Z,4.63
2023-03-24T12:39:35.914Z,3.47
2023-03-24T12:42:16.749Z,3.88
2023-03-24T12:44:51.571Z,4.05
2023-03-24T12:47:39.946Z,4.05
2023-03-24T12:50:31.978Z,3.80
2023-03-24T12:53:16.347Z,3.22
2023-03-24T12:55:52.072Z,3.58
2023-03-24T12:58:41.565Z,2.35
2023-03-24T13:01:21.393Z,1.45
2023-03-24T13:04:00.883Z,1.25
2023-03-24T13:06:54.459Z,1.08
2023-03-24T13:09:36.196Z,0.63
2023-03-24T13:12:44.243Z,0.57
2023-03-24T13:15:20.468Z,0.70
2023-03-24T13:18:01.135Z,0.47
2023-03-24T13:20:32.919Z,0.70
2023-03-24T13:23:09.689Z,0.80
2023-03-24T13:25:52.229Z,0.70
2023-03-24T13:28:29.430Z,0.55
2023-03-24T13:30:57.390Z,0.80
2023-03-24T13:33:31.401Z,0.60
2023-03-24T13:36:35.538Z,0.70
2023-03-24T13:39:08.297Z,0.85
2023-03-24T13:41:41.784Z,0.95
2023-03-24T13:44:18.893Z,0.80
2023-03-24T13:47:01.199Z,0.90
2023-03-24T13:49:30.262Z,1.15
2023-03-24T13:51:57.401Z,1.98
2023-03-24T13:54:27.372Z,1.40
2023-03-24T13:57:17.130Z,1.60
2023-03-24T14:00:11.803Z,1.30
2023-03-24T14:02:49.499Z,1.48
2023-03-24T14:05:22.293Z,1.58
2023-03-24T14:07:50.816Z,1.42
2023-03-24T14:10:19.037Z,1.00
2023-03-24T14:12:57.934Z,2.10
2023-03-24T14:15:28.691Z,1.38
2023-03-24T14:18:06.383Z,1.00
2023-03-24T14:20:39.178Z,1.00
2023-03-24T14:23:22.604Z,1.27
2023-03-24T14:25:55.346Z,0.90
2023-03-24T14:28:37.642Z,1.20
2023-03-24T14:31:20.490Z,1.00
2023-03-24T14:33:53.154Z,1.15
2023-03-24T14:36:41.920Z,1.52
2023-03-24T14:39:33.045Z,1.50
2023-03-24T14:41:59.720Z,2.15
2023-03-24T14:44:44.660Z,2.50
2023-03-24T14:47:34.436Z,1.20
2023-03-24T14:50:22.694Z,1.00
2023-03-24T14:53:02.054Z,0.63
2023-03-24T14:55:29.244Z,1.00
2023-03-24T14:58:02.504Z,0.80
2023-03-24T15:01:07.267Z,0.57
2023-03-24T15:04:01.269Z,0.50
2023-03-24T15:06:27.929Z,0.40
2023-03-24T15:08:59.954Z,1.13
2023-03-24T15:11:36.690Z,0.77
2023-03-24T15:14:13.821Z,0.80
2023-03-24T15:16:40.456Z,0.52
2023-03-24T15:19:19.771Z,0.93
2023-03-24T15:21:49.348Z,0.70
2023-03-24T15:24:22.098Z,0.90
2023-03-24T15:26:51.766Z,0.55
2023-03-24T15:29:18.563Z,0.80
2023-03-24T15:31:45.226Z,0.57
2023-03-24T15:34:28.359Z,0.90
2023-03-24T15:37:35.657Z,1.00
2023-03-24T15:40:15.199Z,0.98
2023-03-24T15:42:44.745Z,1.00
2023-03-24T15:45:28.105Z,0.90
2023-03-24T15:47:56.171Z,3.03
2023-03-24T15:50:39.683Z,1.80
2023-03-24T15:53:15.803Z,1.25
2023-03-24T15:55:43.416Z,1.38
2023-03-24T15:58:25.465Z,1.88
2023-03-24T16:00:57.197Z,1.20
2023-03-24T16:03:27.514Z,1.55
2023-03-24T16:05:56.179Z,1.55
2023-03-24T16:08:36.003Z,1.35
2023-03-24T16:11:10.899Z,1.67
2023-03-24T16:13:44.417Z,1.58
2023-03-24T16:16:14.103Z,1.70
2023-03-24T16:18:42.921Z,1.83
2023-03-24T16:21:21.906Z,1.70
2023-03-24T16:23:50.441Z,2.20
2023-03-24T16:26:20.692Z,1.50
2023-03-24T16:28:48.234Z,1.67
2023-03-24T16:31:30.954Z,1.92
2023-03-24T16:36:26.591Z,2.65
2023-03-24T16:38:55.184Z,2.10
2023-03-24T16:41:22.286Z,2.45
2023-03-24T16:43:48.953Z,2.40
2023-03-24T16:46:21.235Z,1.98
2023-03-24T16:48:48.370Z,2.15
2023-03-24T16:51:16.805Z,2.00
2023-03-24T16:53:45.009Z,1.90
2023-03-24T16:56:14.282Z,1.80
2023-03-24T16:58:41.291Z,2.08
2023-03-24T17:01:29.605Z,1.80
2023-03-24T17:03:59.076Z,1.60
2023-03-24T17:06:27.590Z,2.25
2023-03-24T17:08:54.202Z,1.55
2023-03-24T17:11:27.334Z,1.92
2023-03-24T17:13:54.453Z,1.60
2023-03-24T17:16:22.796Z,1.67
2023-03-24T17:18:49.542Z,1.75
2023-03-24T17:21:17.899Z,1.90
2023-03-24T17:23:46.918Z,1.55
2023-03-24T17:26:13.580Z,1.73
2023-03-24T17:28:40.256Z,1.67
2023-03-24T17:31:06.976Z,1.58
2023-03-24T17:33:33.636Z,2.03
2023-03-24T17:36:00.240Z,1.77
2023-03-24T17:38:26.969Z,1.52
2023-03-24T17:41:04.052Z,1.55
2023-03-24T17:43:31.046Z,1.55
2023-03-24T17:46:02.803Z,1.50
2023-03-24T17:48:29.755Z,1.65
2023-03-24T17:50:56.971Z,1.77
2023-03-24T17:53:26.755Z,2.40
2023-03-24T17:55:58.555Z,3.95
2023-03-24T17:58:29.977Z,2.40
2023-03-24T18:00:58.344Z,1.90
2023-03-24T18:03:25.914Z,2.13
2023-03-24T18:05:52.577Z,2.92
2023-03-24T18:08:19.524Z,2.97
2023-03-24T18:10:46.226Z,4.47
2023-03-24T18:13:12.857Z,2.85
2023-03-24T18:15:42.087Z,2.33
2023-03-24T18:18:08.998Z,3.20
2023-03-24T18:20:36.669Z,4.15
2023-03-24T18:23:04.393Z,3.40
2023-03-24T18:25:32.097Z,2.85
2023-03-24T18:27:58.709Z,2.80
2023-03-24T18:30:25.393Z,3.80
2023-03-24T18:32:51.998Z,4.03
2023-03-24T18:35:18.836Z,3.95
2023-03-24T18:37:45.541Z,2.67
2023-03-24T18:40:12.737Z,2.38
2023-03-24T18:42:39.332Z,1.98
2023-03-24T18:45:07.084Z,2.20
2023-03-24T18:47:34.200Z,2.03
2023-03-24T18:50:01.344Z,2.63
2023-03-24T18:52:27.931Z,3.15
2023-03-24T18:54:54.583Z,2.35
2023-03-24T18:57:21.495Z,1.70
2023-03-24T18:59:48.603Z,1.98
2023-03-24T19:02:15.607Z,1.55
2023-03-24T19:04:43.688Z,1.88
2023-03-24T19:07:14.345Z,1.70
2023-03-24T19:09:42.351Z,1.80
2023-03-24T19:12:09.764Z,1.85
2023-03-24T19:14:36.589Z,1.88
2023-03-24T19:17:03.433Z,1.95
2023-03-24T19:19:31.321Z,1.92
2023-03-24T19:21:59.028Z,1.63
2023-03-24T19:24:28.639Z,2.40
2023-03-24T19:26:55.268Z,1.42
2023-03-24T19:29:21.873Z,1.77
2023-03-24T19:31:49.623Z,2.10
2023-03-24T19:34:17.648Z,1.23
2023-03-24T19:36:46.976Z,1.48
2023-03-24T19:39:15.112Z,1.45
2023-03-24T19:41:41.716Z,1.58
2023-03-24T19:44:08.470Z,1.35
2023-03-24T19:46:35.407Z,1.40
2023-03-24T19:49:02.087Z,1.48
2023-03-24T19:51:28.797Z,1.77
2023-03-24T19:53:55.410Z,2.45
2023-03-24T19:56:22.233Z,1.95
2023-03-24T19:58:48.886Z,1.88
2023-03-24T20:01:15.865Z,1.85
2023-03-24T20:03:42.569Z,1.63
2023-03-24T20:06:09.658Z,1.75
2023-03-24T20:08:38.105Z,2.08
2023-03-24T20:11:10.414Z,1.48
2023-03-24T20:13:37.251Z,2.25
2023-03-24T20:16:04.577Z,2.20
2023-03-24T20:18:31.211Z,1.80
2023-03-24T20:20:59.859Z,1.60
2023-03-24T20:23:26.525Z,2.08
2023-03-24T20:25:53.292Z,1.80
2023-03-24T20:28:19.947Z,1.98
2023-03-24T20:30:46.593Z,1.77
2023-03-24T20:33:13.604Z,1.90
2023-03-24T20:35:40.626Z,1.85
2023-03-24T20:38:07.244Z,1.65
2023-03-24T20:40:33.958Z,2.15
2023-03-24T20:43:00.811Z,2.30
2023-03-24T20:45:27.616Z,1.75
2023-03-24T20:47:54.291Z,1.80
2023-03-24T20:50:21.215Z,1.70
2023-03-24T20:52:47.765Z,1.65
2023-03-24T20:55:14.588Z,1.60
2023-03-24T20:57:41.442Z,1.42
2023-03-24T21:00:13.644Z,1.65
2023-03-24T21:02:43.925Z,1.33
2023-03-24T21:05:10.713Z,1.52
2023-03-24T21:07:38.309Z,1.70
2023-03-24T21:10:06.486Z,1.63
2023-03-24T21:12:34.139Z,1.73
2023-03-24T21:15:01.176Z,1.52
2023-03-24T21:17:32.607Z,1.30
2023-03-24T21:20:03.134Z,1.35
2023-03-24T21:22:37.948Z,1.08
2023-03-24T21:25:05.125Z,1.20
2023-03-24T21:27:32.632Z,1.77
2023-03-24T21:29:59.133Z,1.02
2023-03-24T21:32:25.696Z,1.35
2023-03-24T21:34:52.349Z,1.75
2023-03-24T21:37:19.630Z,1.20
2023-03-24T21:39:46.391Z,1.67
2023-03-24T21:42:15.255Z,1.58
2023-03-24T21:44:42.756Z,1.75
2023-03-24T21:47:09.394Z,1.88
2023-03-24T21:49:35.938Z,1.50
2023-03-24T21:52:04.386Z,1.70
2023-03-24T21:54:33.283Z,1.67
2023-03-24T21:57:00.470Z,2.10
2023-03-24T21:59:27.310Z,1.85
2023-03-24T22:01:53.974Z,1.40
2023-03-24T22:04:20.839Z,2.08
2023-03-24T22:06:47.920Z,1.48
2023-03-24T22:09:14.502Z,2.00
2023-03-24T22:11:42.834Z,1.70
2023-03-24T22:14:09.953Z,2.40
2023-03-24T22:16:36.684Z,1.90
2023-03-24T22:19:03.609Z,1.80
2023-03-24T22:21:32.164Z,1.92
2023-03-24T22:23:58.872Z,1.75
2023-03-24T22:26:25.616Z,1.73
2023-03-24T22:28:52.578Z,1.38
2023-03-24T22:31:22.910Z,1.35
2023-03-24T22:33:50.343Z,1.92
2023-03-24T22:36:17.373Z,1.70
2023-03-24T22:38:43.999Z,1.83
2023-03-24T22:41:12.078Z,1.70
2023-03-24T22:43:41.686Z,2.05
2023-03-24T22:46:10.135Z,1.90
2023-03-24T22:48:38.173Z,1.65
2023-03-24T22:51:05.047Z,1.65
2023-03-24T22:53:31.645Z,1.73
2023-03-24T22:55:58.165Z,1.88
2023-03-24T22:58:24.799Z,1.45
2023-03-24T23:00:56.167Z,1.98
2023-03-24T23:03:22.998Z,1.48
2023-03-24T23:05:49.898Z,1.67
2023-03-24T23:08:16.708Z,1.55
2023-03-24T23:10:45.298Z,2.05
2023-03-24T23:13:12.322Z,1.67
2023-03-24T23:15:40.032Z,1.40
2023-03-24T23:18:06.811Z,2.15
2023-03-24T23:20:33.411Z,1.27
2023-03-24T23:23:01.175Z,1.48
2023-03-24T23:25:30.945Z,1.45
2023-03-24T23:27:58.205Z,1.20
2023-03-24T23:30:24.935Z,1.50
2023-03-24T23:32:51.802Z,1.17
2023-03-24T23:35:18.848Z,1.50
2023-03-24T23:37:45.496Z,1.20
2023-03-24T23:40:15.058Z,1.63
2023-03-24T23:42:44.079Z,2.00
2023-03-24T23:45:14.435Z,1.58
2023-03-24T23:47:42.701Z,1.40
2023-03-24T23:50:10.152Z,1.85
2023-03-24T23:52:37.484Z,1.98
2023-03-24T23:55:04.702Z,1.92
2023-03-24T23:57:31.718Z,1.92
2023-03-24T23:59:59.864Z,1.25
